createdAt,value
2022-12-13T00:00:34.096Z,82.70
2022-12-13T00:03:36.974Z,82.70
2022-12-13T00:06:41.297Z,82.80
2022-12-13T00:09:44.340Z,83.00
2022-12-13T00:12:47.188Z,83.10
2022-12-13T00:15:57.517Z,83.00
2022-12-13T00:19:01.242Z,83.10
2022-12-13T00:22:05.419Z,83.10
2022-12-13T00:25:09.035Z,82.90
2022-12-13T00:28:12.128Z,82.80
2022-12-13T00:31:53.398Z,82.80
2022-12-13T00:34:37.786Z,82.70
2022-12-13T00:37:41.965Z,82.90
2022-12-13T00:40:44.836Z,82.80
2022-12-13T00:43:48.197Z,82.60
2022-12-13T00:46:51.920Z,82.80
2022-12-13T00:49:54.792Z,82.80
2022-12-13T00:53:00.094Z,82.80
2022-12-13T00:56:03.430Z,82.50
2022-12-13T00:59:06.483Z,82.70
2022-12-13T01:02:09.350Z,83.40
2022-12-13T01:05:13.169Z,82.50
2022-12-13T01:08:17.536Z,82.50
2022-12-13T01:11:20.738Z,82.60
2022-12-13T01:14:24.145Z,82.30
2022-12-13T01:17:27.351Z,81.80
2022-12-13T01:20:30.199Z,81.80
2022-12-13T01:23:35.157Z,82.00
2022-12-13T01:26:38.450Z,82.10
2022-12-13T01:29:41.362Z,82.30
2022-12-13T01:32:44.245Z,82.30
2022-12-13T01:35:47.065Z,82.10
2022-12-13T01:38:51.797Z,82.30
2022-12-13T01:42:03.319Z,82.10
2022-12-13T01:45:15.790Z,82.80
2022-12-13T01:48:24.292Z,82.10
2022-12-13T01:51:30.711Z,82.20
2022-12-13T01:54:39.250Z,82.30
2022-12-13T01:57:51.644Z,82.40
2022-12-13T02:00:54.665Z,82.70
2022-12-13T02:03:57.506Z,82.80
2022-12-13T02:07:01.138Z,82.60
2022-12-13T02:10:08.811Z,82.80
2022-12-13T02:13:11.845Z,82.80
2022-12-13T02:16:25.413Z,83.00
2022-12-13T02:20:21.739Z,83.00
2022-12-13T02:24:09.702Z,83.50
2022-12-13T02:27:30.545Z,90.90
2022-12-13T02:30:40.060Z,91.50
2022-12-13T02:33:51.396Z,90.50
2022-12-13T02:37:03.854Z,90.50
2022-12-13T02:40:11.905Z,90.00
2022-12-13T02:43:21.461Z,90.90
2022-12-13T02:46:30.385Z,90.90
2022-12-13T02:49:39.541Z,90.60
2022-12-13T02:52:46.451Z,90.50
2022-12-13T02:55:49.876Z,90.20
2022-12-13T02:58:56.902Z,90.30
2022-12-13T03:02:13.913Z,90.80
2022-12-13T03:05:59.412Z,90.50
2022-12-13T03:09:14.934Z,90.90
2022-12-13T03:12:44.387Z,91.20
2022-12-13T03:15:57.018Z,90.90
2022-12-13T03:19:05.688Z,90.10
2022-12-13T03:22:08.545Z,90.70
2022-12-13T03:25:11.557Z,90.50
2022-12-13T03:28:14.787Z,90.00
2022-12-13T03:31:17.699Z,90.30
2022-12-13T03:34:22.911Z,90.50
2022-12-13T03:37:26.369Z,90.70
2022-12-13T03:40:30.269Z,89.50
2022-12-13T03:43:33.698Z,88.90
2022-12-13T03:46:37.045Z,90.40
2022-12-13T03:49:41.226Z,89.80
2022-12-13T03:52:44.345Z,89.40
2022-12-13T03:55:47.398Z,90.50
2022-12-13T03:58:50.287Z,89.20
2022-12-13T04:01:53.136Z,90.00
2022-12-13T04:04:57.366Z,90.10
2022-12-13T04:08:03.827Z,89.70
2022-12-13T04:11:42.674Z,90.20
2022-12-13T04:14:46.275Z,90.10
2022-12-13T04:17:51.213Z,90.40
2022-12-13T04:20:55.529Z,90.00
2022-12-13T04:24:00.988Z,89.30
2022-12-13T04:27:04.584Z,88.10
2022-12-13T04:30:08.801Z,88.00
2022-12-13T04:33:11.632Z,86.80
2022-12-13T04:36:31.643Z,87.70
2022-12-13T04:39:35.773Z,87.80
2022-12-13T04:42:38.730Z,86.60
2022-12-13T04:45:41.823Z,87.80
2022-12-13T04:48:44.750Z,87.20
2022-12-13T04:51:48.960Z,86.90
2022-12-13T04:54:55.858Z,85.70
2022-12-13T04:57:59.084Z,87.60
2022-12-13T05:01:01.971Z,88.10
2022-12-13T05:04:04.913Z,87.90
2022-12-13T05:07:09.124Z,86.70
2022-12-13T05:10:12.905Z,85.90
2022-12-13T05:13:35.307Z,86.90
2022-12-13T05:16:38.158Z,88.50
2022-12-13T05:19:41.266Z,87.00
2022-12-13T05:22:45.473Z,87.20
2022-12-13T05:25:48.582Z,88.40
2022-12-13T05:28:52.564Z,87.60
2022-12-13T05:31:55.477Z,87.90
2022-12-13T05:34:58.345Z,87.00
2022-12-13T05:38:02.571Z,86.30
2022-12-13T05:41:05.980Z,86.60
2022-12-13T05:44:10.371Z,88.60
2022-12-13T05:47:13.246Z,87.10
2022-12-13T05:50:17.417Z,87.00
2022-12-13T05:53:30.297Z,85.70
2022-12-13T05:56:34.094Z,86.50
2022-12-13T05:59:37.039Z,88.40
2022-12-13T06:02:40.605Z,86.80
2022-12-13T06:05:44.354Z,87.90
2022-12-13T06:08:48.916Z,87.10
2022-12-13T06:11:51.843Z,86.60
2022-12-13T06:15:04.490Z,87.40
2022-12-13T06:18:24.994Z,86.30
2022-12-13T06:21:27.860Z,86.00
2022-12-13T06:24:32.236Z,85.30
2022-12-13T06:27:35.077Z,85.70
2022-12-13T06:30:42.655Z,86.40
2022-12-13T06:33:45.897Z,86.20
2022-12-13T06:36:48.761Z,85.70
2022-12-13T06:39:52.929Z,85.40
2022-12-13T06:42:55.774Z,86.00
2022-12-13T06:45:58.611Z,86.20
2022-12-13T06:49:01.941Z,85.00
2022-12-13T06:52:05.066Z,84.90
2022-12-13T06:55:10.278Z,85.20
2022-12-13T06:58:13.084Z,86.40
2022-12-13T07:01:24.005Z,86.30
2022-12-13T07:04:29.429Z,85.80
2022-12-13T07:07:33.644Z,86.80
2022-12-13T07:10:40.454Z,85.40
2022-12-13T07:13:43.678Z,85.00
2022-12-13T07:16:46.518Z,84.70
2022-12-13T07:19:49.321Z,85.40
2022-12-13T07:22:58.866Z,85.00
2022-12-13T07:26:03.535Z,84.90
2022-12-13T07:29:06.354Z,85.60
2022-12-13T07:32:09.170Z,86.30
2022-12-13T07:35:11.994Z,86.20
2022-12-13T07:38:14.805Z,87.00
2022-12-13T07:41:23.612Z,86.80
2022-12-13T07:44:27.139Z,86.90
2022-12-13T07:47:31.034Z,88.00
2022-12-13T07:50:36.863Z,87.40
2022-12-13T07:53:41.615Z,86.80
2022-12-13T07:56:46.030Z,87.60
2022-12-13T07:59:49.116Z,87.80
2022-12-13T08:02:52.195Z,88.10
2022-12-13T08:06:02.546Z,88.00
2022-12-13T08:09:06.381Z,87.10
2022-12-13T08:12:10.704Z,87.10
2022-12-13T08:15:14.291Z,87.30
2022-12-13T08:18:17.297Z,88.00
2022-12-13T08:21:52.443Z,88.10
2022-12-13T08:24:43.101Z,88.20
2022-12-13T08:27:47.531Z,88.10
2022-12-13T08:30:51.203Z,88.70
2022-12-13T08:33:54.458Z,88.80
2022-12-13T08:37:02.808Z,88.90
2022-12-13T08:40:07.557Z,89.00
2022-12-13T08:43:12.381Z,89.00
2022-12-13T08:46:15.469Z,89.50
2022-12-13T08:49:18.364Z,89.50
2022-12-13T08:52:22.637Z,89.20
2022-12-13T08:55:31.601Z,89.70
2022-12-13T08:58:36.566Z,89.60
2022-12-13T09:01:39.472Z,90.00
2022-12-13T09:04:42.733Z,90.30
2022-12-13T09:07:45.583Z,90.20
2022-12-13T09:10:59.026Z,90.20
2022-12-13T09:14:03.712Z,89.80
2022-12-13T09:17:07.086Z,90.00
2022-12-13T09:20:29.018Z,90.30
2022-12-13T09:23:35.592Z,90.30
2022-12-13T09:26:38.794Z,90.20
2022-12-13T09:29:43.508Z,90.40
2022-12-13T09:32:49.872Z,90.20
2022-12-13T09:35:53.054Z,90.10
2022-12-13T09:38:58.694Z,89.70
2022-12-13T09:42:01.983Z,90.00
2022-12-13T09:45:21.960Z,90.00
2022-12-13T09:48:26.405Z,90.10
2022-12-13T09:51:43.795Z,89.60
2022-12-13T09:54:49.537Z,89.60
2022-12-13T09:57:53.493Z,88.70
2022-12-13T10:00:59.476Z,88.50
2022-12-13T10:04:02.559Z,88.80
2022-12-13T10:07:11.091Z,86.80
2022-12-13T10:10:15.198Z,87.80
2022-12-13T10:13:21.800Z,88.10
2022-12-13T10:16:35.974Z,87.40
2022-12-13T10:19:42.365Z,88.10
2022-12-13T10:23:01.603Z,88.10
2022-12-13T10:26:14.900Z,87.40
2022-12-13T10:29:27.635Z,86.70
2022-12-13T10:32:37.613Z,86.30
2022-12-13T10:35:42.288Z,85.80
2022-12-13T10:38:46.824Z,85.70
2022-12-13T10:41:49.640Z,85.50
2022-12-13T10:45:11.405Z,84.20
2022-12-13T10:48:24.961Z,85.30
2022-12-13T10:51:28.334Z,84.30
2022-12-13T10:54:38.334Z,84.10
2022-12-13T10:57:41.444Z,84.10
2022-12-13T11:00:46.726Z,83.00
2022-12-13T11:04:02.560Z,83.60
2022-12-13T11:07:23.705Z,82.90
2022-12-13T11:10:29.138Z,83.60
2022-12-13T11:13:39.049Z,81.70
2022-12-13T11:16:43.051Z,81.70
2022-12-13T11:19:49.957Z,85.00
2022-12-13T11:23:03.712Z,82.50
2022-12-13T11:26:10.471Z,81.60
2022-12-13T11:29:32.129Z,81.10
2022-12-13T11:32:59.081Z,80.50
2022-12-13T11:36:12.973Z,81.40
2022-12-13T11:39:21.391Z,79.70
2022-12-13T11:42:30.303Z,80.50
2022-12-13T11:45:38.411Z,80.30
2022-12-13T11:48:47.327Z,79.90
2022-12-13T11:51:57.222Z,80.30
2022-12-13T11:55:02.615Z,80.90
2022-12-13T11:58:16.462Z,79.50
2022-12-13T12:01:27.556Z,79.70
2022-12-13T12:04:35.699Z,79.40
2022-12-13T12:08:12.812Z,79.00
2022-12-13T12:11:13.940Z,79.70
2022-12-13T12:14:22.085Z,80.00
2022-12-13T12:17:26.338Z,79.70
2022-12-13T12:20:43.012Z,80.20
2022-12-13T12:24:02.651Z,81.10
2022-12-13T12:27:22.411Z,80.80
2022-12-13T12:30:31.279Z,80.60
2022-12-13T12:33:44.307Z,80.30
2022-12-13T12:36:58.441Z,80.40
2022-12-13T12:40:52.150Z,80.60
2022-12-13T12:44:05.018Z,80.30
2022-12-13T12:47:47.985Z,80.10
2022-12-13T12:50:48.861Z,81.20
2022-12-13T12:53:55.756Z,82.10
2022-12-13T12:57:07.701Z,80.80
2022-12-13T13:00:15.503Z,80.90
2022-12-13T13:03:23.250Z,81.60
2022-12-13T13:06:29.870Z,80.80
2022-12-13T13:09:34.010Z,81.20
2022-12-13T13:12:42.985Z,80.60
2022-12-13T13:15:57.539Z,80.40
2022-12-13T13:19:02.220Z,80.30
2022-12-13T13:22:06.414Z,80.20
2022-12-13T13:25:32.092Z,80.20
2022-12-13T13:28:36.393Z,80.40
2022-12-13T13:32:01.232Z,79.60
2022-12-13T13:35:50.854Z,80.30
2022-12-13T13:38:55.370Z,80.00
2022-12-13T13:42:18.876Z,80.70
2022-12-13T13:45:24.684Z,81.00
2022-12-13T13:48:42.088Z,81.50
2022-12-13T13:52:24.316Z,81.60
2022-12-13T13:55:47.920Z,81.30
2022-12-13T13:59:25.114Z,81.00
2022-12-13T14:03:22.385Z,80.90
2022-12-13T14:07:08.710Z,80.50
2022-12-13T14:10:27.297Z,80.60
2022-12-13T14:14:21.693Z,81.40
2022-12-13T14:17:58.414Z,81.70
2022-12-13T14:21:12.186Z,81.00
2022-12-13T14:24:23.245Z,80.90
2022-12-13T14:27:40.791Z,80.60
2022-12-13T14:30:48.079Z,80.40
2022-12-13T14:34:04.014Z,80.70
2022-12-13T14:37:19.658Z,80.30
2022-12-13T14:40:29.329Z,80.90
2022-12-13T14:43:33.748Z,80.70
2022-12-13T14:46:36.859Z,80.70
2022-12-13T14:49:48.689Z,80.80
2022-12-13T14:52:51.927Z,81.30
2022-12-13T14:56:07.384Z,81.50
2022-12-13T14:59:14.003Z,81.40
2022-12-13T15:02:18.903Z,81.70
2022-12-13T15:05:45.665Z,81.80
2022-12-13T15:08:53.708Z,82.00
2022-12-13T15:12:02.901Z,82.30
2022-12-13T15:15:26.123Z,82.30
2022-12-13T15:18:29.994Z,82.90
2022-12-13T15:21:34.262Z,82.90
2022-12-13T15:24:40.947Z,82.60
2022-12-13T15:27:48.258Z,83.10
2022-12-13T15:30:52.571Z,83.60
2022-12-13T15:34:01.032Z,83.70
2022-12-13T15:37:29.397Z,83.70
2022-12-13T15:40:34.163Z,84.10
2022-12-13T15:43:43.466Z,84.00
2022-12-13T15:46:48.568Z,84.30
2022-12-13T15:49:54.329Z,84.60
2022-12-13T15:53:02.898Z,84.60
2022-12-13T15:56:34.624Z,84.50
2022-12-13T15:59:37.754Z,84.30
2022-12-13T16:02:51.960Z,84.60
2022-12-13T16:05:56.834Z,84.30
2022-12-13T16:09:04.334Z,84.00
2022-12-13T16:12:08.678Z,84.20
2022-12-13T16:15:20.526Z,85.10
2022-12-13T16:18:33.121Z,85.70
2022-12-13T16:21:36.213Z,85.80
2022-12-13T16:24:40.494Z,85.20
2022-12-13T16:27:43.399Z,84.60
2022-12-13T16:31:04.823Z,84.60
2022-12-13T16:34:07.702Z,84.80
2022-12-13T16:37:26.772Z,84.70
2022-12-13T16:40:33.159Z,85.00
2022-12-13T16:43:40.442Z,85.20
2022-12-13T16:47:18.136Z,85.40
2022-12-13T16:50:14.851Z,85.50
2022-12-13T16:53:18.058Z,85.30
2022-12-13T16:56:22.426Z,85.20
2022-12-13T16:59:27.441Z,85.50
2022-12-13T17:02:30.292Z,85.60
2022-12-13T17:05:35.138Z,85.50
2022-12-13T17:08:38.178Z,85.70
2022-12-13T17:11:42.538Z,85.40
2022-12-13T17:14:45.344Z,85.40
2022-12-13T17:17:48.897Z,85.50
2022-12-13T17:20:58.294Z,85.70
2022-12-13T17:24:03.300Z,85.80
2022-12-13T17:27:07.774Z,85.90
2022-12-13T17:30:15.232Z,85.90
2022-12-13T17:33:18.219Z,85.90
2022-12-13T17:36:21.110Z,86.20
2022-12-13T17:39:25.432Z,86.30
2022-12-13T17:42:29.832Z,86.60
2022-12-13T17:45:32.892Z,86.60
2022-12-13T17:48:40.660Z,86.60
2022-12-13T17:51:44.077Z,86.70
2022-12-13T17:54:54.708Z,87.00
2022-12-13T17:58:04.288Z,87.20
2022-12-13T18:01:12.509Z,87.20
2022-12-13T18:04:16.095Z,87.20
2022-12-13T18:07:20.310Z,87.50
2022-12-13T18:10:27.954Z,87.50
2022-12-13T18:13:34.095Z,87.70
2022-12-13T18:16:38.938Z,87.70
2022-12-13T18:19:42.333Z,88.20
2022-12-13T18:22:51.333Z,87.90
2022-12-13T18:26:00.151Z,87.80
2022-12-13T18:29:05.030Z,87.80
2022-12-13T18:32:07.824Z,89.40
2022-12-13T18:35:10.982Z,88.40
2022-12-13T18:38:13.888Z,88.00
2022-12-13T18:41:18.279Z,87.60
2022-12-13T18:44:22.580Z,88.00
2022-12-13T18:47:27.104Z,88.00
2022-12-13T18:50:30.187Z,87.80
2022-12-13T18:53:33.891Z,87.90
2022-12-13T18:56:36.713Z,88.20
2022-12-13T18:59:40.888Z,88.20
2022-12-13T19:02:43.876Z,88.20
2022-12-13T19:05:46.733Z,88.20
2022-12-13T19:08:50.306Z,88.20
2022-12-13T19:11:53.145Z,88.20
2022-12-13T19:14:57.346Z,88.10
2022-12-13T19:18:00.226Z,87.90
2022-12-13T19:21:03.345Z,88.00
2022-12-13T19:24:07.006Z,87.80
2022-12-13T19:27:09.921Z,87.60
2022-12-13T19:30:14.658Z,87.20
2022-12-13T19:33:18.392Z,87.40
2022-12-13T19:36:21.232Z,87.30
2022-12-13T19:39:24.984Z,87.50
2022-12-13T19:42:27.800Z,87.30
2022-12-13T19:45:31.977Z,87.20
2022-12-13T19:48:37.558Z,87.10
2022-12-13T19:51:40.856Z,87.00
2022-12-13T19:54:43.657Z,86.90
2022-12-13T19:57:47.329Z,86.80
2022-12-13T20:00:52.067Z,86.80
2022-12-13T20:03:56.373Z,87.00
2022-12-13T20:06:59.209Z,87.00
2022-12-13T20:10:02.104Z,86.50
2022-12-13T20:13:05.003Z,86.70
2022-12-13T20:16:09.520Z,86.80
2022-12-13T20:19:12.407Z,86.70
2022-12-13T20:22:15.498Z,86.40
2022-12-13T20:25:18.392Z,86.60
2022-12-13T20:28:21.487Z,86.80
2022-12-13T20:31:27.165Z,86.70
2022-12-13T20:34:30.149Z,86.70
2022-12-13T20:37:32.997Z,86.40
2022-12-13T20:40:35.820Z,86.50
2022-12-13T20:43:38.843Z,86.50
2022-12-13T20:46:43.115Z,86.00
2022-12-13T20:49:49.169Z,85.70
2022-12-13T20:52:53.001Z,85.80
2022-12-13T20:55:57.786Z,85.60
2022-12-13T20:59:00.661Z,85.80
2022-12-13T21:02:05.019Z,85.60
2022-12-13T21:05:08.572Z,86.10
2022-12-13T21:08:28.806Z,86.20
2022-12-13T21:11:33.538Z,86.10
2022-12-13T21:14:36.841Z,86.20
2022-12-13T21:17:42.307Z,86.70
2022-12-13T21:20:45.132Z,86.70
2022-12-13T21:23:48.554Z,86.80
2022-12-13T21:26:52.081Z,86.40
2022-12-13T21:29:54.898Z,86.40
2022-12-13T21:32:59.032Z,86.50
2022-12-13T21:36:10.097Z,86.70
2022-12-13T21:39:14.885Z,86.90
2022-12-13T21:42:17.711Z,86.90
2022-12-13T21:45:20.632Z,87.00
2022-12-13T21:48:24.878Z,87.00
2022-12-13T21:51:30.598Z,87.20
2022-12-13T21:54:33.427Z,87.10
2022-12-13T21:57:53.783Z,87.00
2022-12-13T22:00:56.732Z,87.50
2022-12-13T22:04:06.666Z,87.50
2022-12-13T22:07:13.466Z,87.20
2022-12-13T22:10:16.304Z,87.50
2022-12-13T22:13:19.121Z,87.60
2022-12-13T22:16:21.976Z,87.40
2022-12-13T22:19:26.170Z,87.30
2022-12-13T22:22:29.035Z,87.40
2022-12-13T22:25:31.848Z,87.70
2022-12-13T22:28:34.648Z,87.20
2022-12-13T22:31:37.572Z,87.50
2022-12-13T22:34:42.547Z,87.80
2022-12-13T22:37:45.923Z,87.80
2022-12-13T22:40:51.754Z,87.60
2022-12-13T22:43:54.643Z,87.90
2022-12-13T22:46:57.557Z,87.80
2022-12-13T22:50:01.722Z,87.50
2022-12-13T22:53:04.776Z,87.60
2022-12-13T22:56:09.141Z,87.90
2022-12-13T22:59:11.991Z,87.80
2022-12-13T23:02:15.070Z,87.60
2022-12-13T23:05:19.951Z,88.10
2022-12-13T23:08:22.819Z,87.90
2022-12-13T23:11:44.191Z,87.50
2022-12-13T23:14:46.971Z,87.40
2022-12-13T23:17:49.772Z,87.00
2022-12-13T23:20:54.029Z,86.90
2022-12-13T23:23:57.845Z,87.50
2022-12-13T23:27:00.684Z,87.80
2022-12-13T23:30:03.510Z,87.50
2022-12-13T23:33:06.929Z,87.80
2022-12-13T23:36:14.291Z,87.90
2022-12-13T23:39:17.141Z,87.80
2022-12-13T23:42:19.980Z,88.20
2022-12-13T23:45:23.535Z,88.30
2022-12-13T23:48:27.264Z,88.10
2022-12-13T23:51:32.154Z,88.40
2022-12-13T23:54:34.939Z,88.10
2022-12-13T23:57:37.729Z,88.30
